San Fernando, Trinidad and Tobago
Current Conditions -  °F | °C
As of 12:00 PM on Saturday 25 Oct 2014 (Local Time) from TTPP Reporting Station
Few Clouds Few Clouds  
Wind Chill: 88°   Ceiling: Unl
Heat Index: 96°   Visibility: 6mi
Dew Point: 73°   Wind: 13mph
Humidity: 62%   Direction: 90°E
Pressure: 29.85"   Gusts: NA
Location:  10.25°N, 61.46°W
Report Text: TTPP 251600Z 09011KT 9999 FEW020 31/23 Q1011 NOSIG
Loading
Personal Weather Stations






























Interactive Weather Map New forecast layout! Learn more

10-Day Weather Forecast

Advertisements
Track Severe Weather on mobile